首页
METAR-TAF:

METAR-TAF

机场 :

塔拉迪加, 阿拉巴马州, 美国

纬度: 33-34-10N, 经度: 086-03-04W, 海拔: 160米

当前天气观测

该预报发布于24分钟前的00:55 UTC
风速5节,风向
温度 20°C
湿度 100%
气压 1016 hPa
能見度: 16.1公里
阴天层高于5500英尺
小毛毛雨

METAR: KASN 270055Z AUTO 09005KT 10SM -DZ OVC055 20/20 A2999 RMK AO2 P0001 T02030201

时间: 20:19 (01:19 UTC)

预报

该预报发布于1小时和59分钟前的23:20 UTC
预报有效从27日的 00点(UTC)到 27日的 24点(UTC)
风速8节,风向
能見度: 10公里
多云层高于5000英尺
附近有阵雨
短暂存在
从 27日的 00点(UTC)到 27日的 03点(UTC)
阴天层高于2500英尺
从 27日的 0300点(UTC)
风速7节,风向
能見度: 10公里
阴天层高于2500英尺
附近有阵雨
从 27日的 0800点(UTC)
风速6节,风向
能見度: 9.7公里
阴天层高于700英尺
轻雾, 附近有阵雨
从 27日的 1000点(UTC)
风速6节,风向
能見度: 9.7公里
阴天层高于800英尺
轻雾
几率 30%
从 27日的 12点(UTC)到 27日的 15点(UTC)
能見度: 6.4公里
阴天层高于400英尺
小阵雨
从 27日的 1600点(UTC)
风速5节,风向东转东南
能見度: 10公里
阴天层高于1500英尺
小阵雨
几率 30%
从 27日的 18点(UTC)到 27日的 22点(UTC)
能見度: 6.4公里
阴天层高于800英尺, 积雨云.
雷暴, 雨
从 27日的 2200点(UTC)
风速5节,风向东转东南
能見度: 10公里
多云层高于4000英尺
阵雨
几率 30%
从 27日的 22点(UTC)到 27日的 24点(UTC)
能見度: 6.4公里
阴天层高于1500英尺, 积雨云.
雷暴, 雨

TAF: KASN 262320Z 2700/2724 09008KT P6SM VCSH BKN050 TEMPO 2700/2703 OVC025 FM270300 09007KT P6SM VCSH OVC025 FM270800 08006KT 6SM BR VCSH OVC007 FM271000 08006KT 6SM BR OVC008 PROB30 2712/2715 4SM -SHRA OVC004 FM271600 11005KT P6SM -SHRA OVC015 PROB30 2718/2722 4SM TSRA OVC008CB FM272200 11005KT P6SM SHRA BKN040 PROB30 2722/2724 4SM TSRA OVC015CB

超过4000个机场的气象观测和天气预报(METAR&TAF报告)。

可查询的气象台以黄色和红色小点在地图上表示。

将鼠标移到小点上方,可查看气象台名称。

然后点击查看天气观测和预报。

如需切换地图:点击带黑十字的绿色按钮放大地图;点击带横线的绿色按钮缩小地图;或者点击绿色箭头查看邻近地区的地图。


METAR-TAF: